TimePDT,TemperatureF,Dew PointF,Humidity,Sea Level PressureIn,VisibilityMPH,Wind Direction,Wind SpeedMPH,Gust SpeedMPH,PrecipitationIn,Events,Conditions,WindDirDegrees,DateUTC
12:53 AM,89.1,55.9,32,29.68,10.0,Calm,Calm,-,N/A,,Clear,0,2013-07-15 07:53:00
1:53 AM,90.0,53.1,28,29.69,10.0,Calm,Calm,-,N/A,,Clear,0,2013-07-15 08:53:00
2:53 AM,91.0,53.1,27,29.68,10.0,SSW,4.6,-,N/A,,Clear,210,2013-07-15 09:53:00
3:53 AM,87.1,53.1,31,29.68,10.0,West,4.6,-,N/A,,Clear,260,2013-07-15 10:53:00
4:53 AM,87.1,54.0,32,29.68,10.0,Calm,Calm,-,N/A,,Clear,0,2013-07-15 11:53:00
5:53 AM,84.0,68.0,58,29.69,10.0,SE,5.8,-,N/A,,Clear,140,2013-07-15 12:53:00
6:53 AM,87.1,71.1,59,29.70,10.0,South,5.8,-,N/A,,Clear,180,2013-07-15 13:53:00
7:53 AM,89.1,73.0,59,29.71,10.0,Calm,Calm,-,N/A,,Clear,0,2013-07-15 14:53:00
8:53 AM,93.9,71.1,47,29.72,10.0,Variable,3.5,-,N/A,,Clear,0,2013-07-15 15:53:00
9:53 AM,98.1,68.0,37,29.71,10.0,East,3.5,-,N/A,,Clear,90,2013-07-15 16:53:00
10:53 AM,102.0,64.0,29,29.70,10.0,ENE,6.9,-,N/A,,Clear,70,2013-07-15 17:53:00
11:53 AM,105.1,60.1,23,29.69,10.0,ESE,8.1,-,N/A,,Clear,120,2013-07-15 18:53:00
12:53 PM,106.0,57.0,20,29.66,10.0,ESE,5.8,-,N/A,,Clear,120,2013-07-15 19:53:00
1:53 PM,108.0,55.0,17,29.64,10.0,SW,5.8,-,N/A,,Scattered Clouds,230,2013-07-15 20:53:00
2:53 PM,109.9,53.1,15,29.60,10.0,South,4.6,-,N/A,,Mostly Cloudy,180,2013-07-15 21:53:00
3:53 PM,111.0,53.1,15,29.58,10.0,Calm,Calm,-,N/A,,Mostly Cloudy,0,2013-07-15 22:53:00
4:53 PM,111.0,52.0,14,29.56,10.0,SSW,9.2,-,N/A,,Overcast,200,2013-07-15 23:53:00
5:53 PM,107.1,53.1,17,29.57,10.0,WSW,16.1,24.2,N/A,,Mostly Cloudy,250,2013-07-16 00:53:00
6:53 PM,102.0,51.1,18,29.58,10.0,WSW,17.3,25.3,N/A,,Mostly Cloudy,250,2013-07-16 01:53:00
7:53 PM,98.1,46.9,18,29.60,10.0,West,12.7,-,N/A,,Partly Cloudy,270,2013-07-16 02:53:00
8:53 PM,93.9,45.0,18,29.63,10.0,West,12.7,-,N/A,,Clear,260,2013-07-16 03:53:00
9:53 PM,90.0,46.0,22,29.66,10.0,West,8.1,-,N/A,,Clear,280,2013-07-16 04:53:00
10:53 PM,89.1,45.0,22,29.67,10.0,West,10.4,-,N/A,,Clear,280,2013-07-16 05:53:00
11:53 PM,84.9,48.0,28,29.68,10.0,West,8.1,-,N/A,,Clear,270,2013-07-16 06:53:00